createdAt,value
2018-06-24T00:01:51.912Z,100178.00
2018-06-24T00:03:56.547Z,100175.00
2018-06-24T00:06:00.961Z,100179.00
2018-06-24T00:08:05.366Z,100169.00
2018-06-24T00:10:10.679Z,100165.00
2018-06-24T00:12:15.177Z,100166.00
2018-06-24T00:14:19.631Z,100163.00
2018-06-24T00:16:23.995Z,100161.00
2018-06-24T00:18:28.478Z,100159.00
2018-06-24T00:20:32.876Z,100155.00
2018-06-24T00:22:37.316Z,100150.00
2018-06-24T00:24:41.713Z,100154.00
2018-06-24T00:26:46.350Z,100152.00
2018-06-24T00:28:50.777Z,100145.00
2018-06-24T00:30:55.319Z,100152.00
2018-06-24T00:32:59.809Z,100150.00
2018-06-24T00:35:04.284Z,100158.00
2018-06-24T00:37:08.960Z,100149.00
2018-06-24T00:39:13.391Z,100147.00
2018-06-24T00:41:17.835Z,100152.00
2018-06-24T00:43:22.261Z,100133.00
2018-06-24T00:45:26.670Z,100134.00
2018-06-24T00:47:31.104Z,100141.00
2018-06-24T00:49:35.594Z,100142.00
2018-06-24T00:51:39.999Z,100130.00
2018-06-24T00:53:44.427Z,100129.00
2018-06-24T00:55:48.843Z,100120.00
2018-06-24T00:57:53.244Z,100126.00
2018-06-24T01:00:14.459Z,100123.00
2018-06-24T01:02:21.998Z,100118.00
2018-06-24T01:04:29.543Z,100120.00
2018-06-24T01:06:36.028Z,100113.00
2018-06-24T01:08:42.704Z,100117.00
2018-06-24T01:10:51.345Z,100115.00
2018-06-24T01:12:58.224Z,100107.00
2018-06-24T01:15:07.007Z,100109.00
2018-06-24T01:17:12.619Z,100107.00
2018-06-24T01:19:19.211Z,100100.00
2018-06-24T01:23:25.583Z,100113.00
2018-06-24T01:25:32.011Z,100103.00
2018-06-24T01:27:40.356Z,100099.00
2018-06-24T01:29:47.991Z,100103.00
2018-06-24T01:31:52.394Z,100094.00
2018-06-24T01:34:00.028Z,100089.00
2018-06-24T01:36:07.723Z,100080.00
2018-06-24T01:38:14.652Z,100077.00
2018-06-24T01:40:22.836Z,100076.00
2018-06-24T01:42:30.106Z,100068.00
2018-06-24T01:44:36.770Z,100069.00
2018-06-24T01:46:42.994Z,100059.00
2018-06-24T01:48:51.355Z,100054.00
2018-06-24T01:50:58.532Z,100054.00
2018-06-24T01:53:06.728Z,100055.00
2018-06-24T01:55:13.843Z,100055.00
2018-06-24T01:57:21.162Z,100044.00
2018-06-24T01:59:27.647Z,100054.00
2018-06-24T02:01:36.275Z,100046.00
2018-06-24T02:03:44.262Z,100048.00
2018-06-24T02:05:51.763Z,100044.00
2018-06-24T02:07:57.615Z,100054.00
2018-06-24T02:10:05.895Z,100042.00
2018-06-24T02:12:11.494Z,100051.00
2018-06-24T02:14:18.719Z,100058.00
2018-06-24T02:16:26.964Z,100052.00
2018-06-24T02:18:32.720Z,100045.00
2018-06-24T02:20:37.251Z,100051.00
2018-06-24T02:22:41.818Z,100054.00
2018-06-24T02:24:46.255Z,100051.00
2018-06-24T02:26:50.700Z,100054.00
2018-06-24T02:28:55.103Z,100060.00
2018-06-24T02:30:59.563Z,100050.00
2018-06-24T02:33:04.075Z,100052.00
2018-06-24T02:35:08.543Z,100041.00
2018-06-24T02:37:13.049Z,100048.00
2018-06-24T02:39:17.483Z,100048.00
2018-06-24T02:41:22.095Z,100050.00
2018-06-24T02:43:26.548Z,100051.00
2018-06-24T02:45:31.030Z,100050.00
2018-06-24T02:47:35.447Z,100048.00
2018-06-24T02:49:40.447Z,100044.00
2018-06-24T02:51:44.886Z,100047.00
2018-06-24T02:53:49.300Z,100053.00
2018-06-24T02:55:53.715Z,100054.00
2018-06-24T02:57:58.214Z,100044.00
2018-06-24T03:00:02.838Z,100049.00
2018-06-24T03:02:07.415Z,100055.00
2018-06-24T03:04:11.840Z,100056.00
2018-06-24T03:06:16.291Z,100055.00
2018-06-24T03:08:20.762Z,100047.00
2018-06-24T03:10:25.204Z,100065.00
2018-06-24T03:12:29.684Z,100053.00
2018-06-24T03:14:34.124Z,100055.00
2018-06-24T03:16:38.764Z,100049.00
2018-06-24T03:18:43.475Z,100057.00
2018-06-24T03:20:47.643Z,100052.00
2018-06-24T03:22:52.194Z,100056.00
2018-06-24T03:24:56.631Z,100051.00
2018-06-24T03:27:01.247Z,100054.00
2018-06-24T03:29:05.718Z,100052.00
2018-06-24T03:31:10.157Z,100044.00
2018-06-24T03:33:14.608Z,100045.00
2018-06-24T03:35:19.042Z,100037.00
2018-06-24T03:37:23.515Z,100036.00
2018-06-24T03:39:28.275Z,100034.00
2018-06-24T03:41:32.695Z,100044.00
2018-06-24T03:43:37.088Z,100041.00
2018-06-24T03:45:41.516Z,100038.00
2018-06-24T03:47:45.931Z,100038.00
2018-06-24T03:49:50.360Z,100046.00
2018-06-24T03:51:54.775Z,100045.00
2018-06-24T03:53:58.877Z,100043.00
2018-06-24T03:56:03.443Z,100040.00
2018-06-24T03:58:09.386Z,100046.00
2018-06-24T04:00:16.496Z,100050.00
2018-06-24T04:02:25.367Z,100058.00
2018-06-24T04:04:32.107Z,100049.00
2018-06-24T04:06:38.151Z,100041.00
2018-06-24T04:08:44.220Z,100051.00
2018-06-24T04:10:51.303Z,100041.00
2018-06-24T04:12:59.659Z,100050.00
2018-06-24T04:15:07.052Z,100045.00
2018-06-24T04:17:13.319Z,100051.00
2018-06-24T04:19:21.232Z,100049.00
2018-06-24T04:21:26.843Z,100047.00
2018-06-24T04:23:31.358Z,100039.00
2018-06-24T04:25:35.759Z,100038.00
2018-06-24T04:27:40.416Z,100038.00
2018-06-24T04:29:44.846Z,100032.00
2018-06-24T04:31:49.335Z,100029.00
2018-06-24T04:33:53.716Z,100030.00
2018-06-24T04:35:58.125Z,100033.00
2018-06-24T04:38:02.609Z,100031.00
2018-06-24T04:40:07.270Z,100030.00
2018-06-24T04:42:11.694Z,100032.00
2018-06-24T04:44:16.099Z,100028.00
2018-06-24T04:46:20.494Z,100038.00
2018-06-24T04:48:24.926Z,100044.00
2018-06-24T04:50:29.393Z,100045.00
2018-06-24T04:52:33.902Z,100044.00
2018-06-24T04:54:38.361Z,100055.00
2018-06-24T04:56:42.806Z,100043.00
2018-06-24T04:58:47.270Z,100044.00
2018-06-24T05:00:51.762Z,100045.00
2018-06-24T05:02:56.236Z,100046.00
2018-06-24T05:05:00.740Z,100048.00
2018-06-24T05:07:05.187Z,100052.00
2018-06-24T05:09:10.693Z,100061.00
2018-06-24T05:11:15.203Z,100058.00
2018-06-24T05:13:19.329Z,100059.00
2018-06-24T05:15:23.777Z,100048.00
2018-06-24T05:17:28.215Z,100047.00
2018-06-24T05:19:32.644Z,100053.00
2018-06-24T05:21:37.131Z,100057.00
2018-06-24T05:23:41.622Z,100052.00
2018-06-24T05:25:48.750Z,100067.00
2018-06-24T05:27:53.230Z,100073.00
2018-06-24T05:29:57.642Z,100075.00
2018-06-24T05:32:02.096Z,100069.00
2018-06-24T05:34:06.630Z,100074.00
2018-06-24T05:36:11.066Z,100064.00
2018-06-24T05:38:15.542Z,100080.00
2018-06-24T05:40:20.468Z,100069.00
2018-06-24T05:42:24.874Z,100073.00
2018-06-24T05:44:29.314Z,100070.00
2018-06-24T05:46:34.015Z,100067.00
2018-06-24T05:48:38.418Z,100061.00
2018-06-24T05:50:42.861Z,100063.00
2018-06-24T05:52:47.335Z,100069.00
2018-06-24T05:54:51.734Z,100064.00
2018-06-24T05:56:56.154Z,100068.00
2018-06-24T05:59:00.647Z,100069.00
2018-06-24T06:01:05.203Z,100073.00
2018-06-24T06:03:09.746Z,100068.00
2018-06-24T06:05:14.322Z,100062.00
2018-06-24T06:07:18.774Z,100065.00
2018-06-24T06:09:23.273Z,100070.00
2018-06-24T06:11:27.740Z,100061.00
2018-06-24T06:13:32.271Z,100063.00
2018-06-24T06:15:36.726Z,100063.00
2018-06-24T06:17:41.181Z,100059.00
2018-06-24T06:19:45.727Z,100065.00
2018-06-24T06:21:50.294Z,100058.00
2018-06-24T06:23:54.762Z,100065.00
2018-06-24T06:25:59.211Z,100061.00
2018-06-24T06:28:03.740Z,100062.00
2018-06-24T06:30:09.260Z,100077.00
2018-06-24T06:32:13.847Z,100077.00
2018-06-24T06:34:18.310Z,100066.00
2018-06-24T06:36:22.736Z,100066.00
2018-06-24T06:38:27.343Z,100077.00
2018-06-24T06:40:31.839Z,100080.00
2018-06-24T06:42:39.208Z,100077.00
2018-06-24T06:44:44.547Z,100081.00
2018-06-24T06:46:48.967Z,100077.00
2018-06-24T06:48:53.935Z,100082.00
2018-06-24T06:50:58.461Z,100080.00
2018-06-24T06:53:03.019Z,100085.00
2018-06-24T06:55:08.289Z,100095.00
2018-06-24T06:57:12.758Z,100098.00
2018-06-24T06:59:17.792Z,100086.00
2018-06-24T07:01:22.954Z,100085.00
2018-06-24T07:03:27.867Z,100090.00
2018-06-24T07:05:32.344Z,100099.00
2018-06-24T07:07:36.776Z,100088.00
2018-06-24T07:09:42.041Z,100088.00
2018-06-24T07:11:46.204Z,100087.00
2018-06-24T07:13:50.710Z,100088.00
2018-06-24T07:15:55.342Z,100078.00
2018-06-24T07:18:00.322Z,100093.00
2018-06-24T07:20:04.928Z,100094.00
2018-06-24T07:22:09.841Z,100092.00
2018-06-24T07:24:14.287Z,100096.00
2018-06-24T07:26:18.745Z,100090.00
2018-06-24T07:28:23.228Z,100097.00
2018-06-24T07:30:27.715Z,100098.00
2018-06-24T07:32:32.180Z,100090.00
2018-06-24T07:34:36.627Z,100091.00
2018-06-24T07:36:41.077Z,100095.00
2018-06-24T07:38:45.590Z,100094.00
2018-06-24T07:40:50.741Z,100096.00
2018-06-24T07:42:55.227Z,100097.00
2018-06-24T07:45:00.068Z,100105.00
2018-06-24T07:47:04.524Z,100104.00
2018-06-24T07:49:08.971Z,100106.00
2018-06-24T07:51:13.440Z,100099.00
2018-06-24T07:53:17.893Z,100103.00
2018-06-24T07:55:22.426Z,100106.00
2018-06-24T07:57:27.482Z,100095.00
2018-06-24T07:59:32.010Z,100098.00
2018-06-24T08:01:36.776Z,100100.00
2018-06-24T08:03:41.731Z,100109.00
2018-06-24T08:05:46.216Z,100106.00
2018-06-24T08:07:51.194Z,100110.00
2018-06-24T08:09:55.679Z,100099.00
2018-06-24T08:12:00.194Z,100106.00
2018-06-24T08:14:05.628Z,100105.00
2018-06-24T08:16:09.854Z,100111.00
2018-06-24T08:18:13.991Z,100102.00
2018-06-24T08:20:18.474Z,100114.00
2018-06-24T08:22:24.040Z,100109.00
2018-06-24T08:24:28.635Z,100097.00
2018-06-24T08:26:33.099Z,100103.00
2018-06-24T08:28:37.612Z,100104.00
2018-06-24T08:30:42.175Z,100100.00
2018-06-24T08:32:46.897Z,100101.00
2018-06-24T08:34:51.431Z,100095.00
2018-06-24T08:36:56.467Z,100102.00
2018-06-24T08:39:01.099Z,100094.00
2018-06-24T08:41:06.960Z,100098.00
2018-06-24T08:43:11.396Z,100104.00
2018-06-24T08:45:16.460Z,100102.00
2018-06-24T08:47:20.919Z,100109.00
2018-06-24T08:49:25.454Z,100106.00
2018-06-24T08:51:29.736Z,100102.00
2018-06-24T08:53:34.888Z,100110.00
2018-06-24T08:55:39.384Z,100114.00
2018-06-24T08:57:43.842Z,100108.00
2018-06-24T08:59:48.357Z,100109.00
2018-06-24T09:01:52.930Z,100110.00
2018-06-24T09:03:57.366Z,100115.00
2018-06-24T09:06:01.797Z,100120.00
2018-06-24T09:08:07.103Z,100113.00
2018-06-24T09:10:11.780Z,100121.00
2018-06-24T09:12:16.206Z,100121.00
2018-06-24T09:14:20.623Z,100120.00
2018-06-24T09:16:25.103Z,100113.00
2018-06-24T09:18:29.519Z,100113.00
2018-06-24T09:20:34.027Z,100111.00
2018-06-24T09:22:38.578Z,100116.00
2018-06-24T09:24:43.209Z,100111.00
2018-06-24T09:26:47.673Z,100120.00
2018-06-24T09:28:52.147Z,100121.00
2018-06-24T09:30:56.660Z,100121.00
2018-06-24T09:33:02.687Z,100116.00
2018-06-24T09:35:06.870Z,100120.00
2018-06-24T09:37:12.319Z,100110.00
2018-06-24T09:39:17.522Z,100118.00
2018-06-24T09:41:22.378Z,100123.00
2018-06-24T09:43:27.160Z,100117.00
2018-06-24T09:45:32.155Z,100108.00
2018-06-24T09:47:36.606Z,100123.00
2018-06-24T09:49:41.195Z,100122.00
2018-06-24T09:51:45.735Z,100112.00
2018-06-24T09:53:50.408Z,100115.00
2018-06-24T09:55:54.916Z,100113.00
2018-06-24T09:58:00.036Z,100110.00
2018-06-24T10:00:05.147Z,100111.00
2018-06-24T10:02:09.698Z,100101.00
2018-06-24T10:04:14.325Z,100097.00
2018-06-24T10:06:18.867Z,100101.00
2018-06-24T10:08:23.380Z,100097.00
2018-06-24T10:10:27.931Z,100102.00
2018-06-24T10:12:32.358Z,100105.00
2018-06-24T10:14:36.770Z,100100.00
2018-06-24T10:16:41.644Z,100105.00
2018-06-24T10:18:45.769Z,100097.00
2018-06-24T10:20:50.743Z,100103.00
2018-06-24T10:22:56.108Z,100118.00
2018-06-24T10:25:00.510Z,100113.00
2018-06-24T10:27:04.681Z,100104.00
2018-06-24T10:29:09.148Z,100105.00
2018-06-24T10:31:13.647Z,100107.00
2018-06-24T10:33:18.050Z,100106.00
2018-06-24T10:35:23.176Z,100106.00
2018-06-24T10:37:27.367Z,100106.00
2018-06-24T10:39:31.926Z,100109.00
2018-06-24T10:41:36.404Z,100103.00
2018-06-24T10:43:41.402Z,100109.00
2018-06-24T10:45:45.894Z,100102.00
2018-06-24T10:47:50.352Z,100096.00
2018-06-24T10:49:55.025Z,100103.00
2018-06-24T10:51:59.526Z,100093.00
2018-06-24T10:54:05.085Z,100094.00
2018-06-24T10:56:09.640Z,100096.00
2018-06-24T10:58:14.132Z,100094.00
2018-06-24T11:00:18.582Z,100088.00
2018-06-24T11:02:23.229Z,100094.00
2018-06-24T11:04:27.710Z,100092.00
2018-06-24T11:06:32.242Z,100099.00
2018-06-24T11:08:36.691Z,100095.00
2018-06-24T11:10:41.463Z,100095.00
2018-06-24T11:12:46.011Z,100098.00
2018-06-24T11:14:51.110Z,100094.00
2018-06-24T11:16:55.587Z,100093.00
2018-06-24T11:19:00.006Z,100095.00
2018-06-24T11:21:04.514Z,100091.00
2018-06-24T11:23:09.040Z,100102.00
2018-06-24T11:25:13.490Z,100094.00
2018-06-24T11:27:19.033Z,100085.00
2018-06-24T11:29:23.529Z,100081.00
2018-06-24T11:31:28.090Z,100086.00
2018-06-24T11:33:32.612Z,100089.00
2018-06-24T11:35:37.061Z,100093.00
2018-06-24T11:37:41.519Z,100091.00
2018-06-24T11:39:46.558Z,100095.00
2018-06-24T11:41:51.002Z,100094.00
2018-06-24T11:43:55.438Z,100094.00
2018-06-24T11:46:00.143Z,100107.00
2018-06-24T11:48:04.607Z,100102.00
2018-06-24T11:50:09.006Z,100098.00
2018-06-24T11:52:13.738Z,100095.00
2018-06-24T11:54:18.324Z,100091.00
2018-06-24T11:56:22.778Z,100092.00
2018-06-24T11:58:27.735Z,100094.00
2018-06-24T12:00:33.258Z,100098.00
2018-06-24T12:02:38.716Z,100092.00
2018-06-24T12:04:43.585Z,100096.00
2018-06-24T12:06:48.019Z,100086.00
2018-06-24T12:08:52.425Z,100089.00
2018-06-24T12:10:59.318Z,100094.00
2018-06-24T12:13:03.960Z,100098.00
2018-06-24T12:15:08.858Z,100092.00
2018-06-24T12:17:13.612Z,100081.00
2018-06-24T12:19:17.730Z,100091.00
2018-06-24T12:21:22.235Z,100085.00
2018-06-24T12:23:26.808Z,100096.00
2018-06-24T12:25:31.934Z,100089.00
2018-06-24T12:27:36.811Z,100084.00
2018-06-24T12:29:41.315Z,100083.00
2018-06-24T12:31:46.014Z,100083.00
2018-06-24T12:33:50.567Z,100084.00
2018-06-24T12:35:55.118Z,100084.00
2018-06-24T12:37:59.574Z,100073.00
2018-06-24T12:40:04.051Z,100087.00
2018-06-24T12:42:09.238Z,100083.00
2018-06-24T12:44:13.799Z,100081.00
2018-06-24T12:46:18.306Z,100083.00
2018-06-24T12:48:24.125Z,100083.00
2018-06-24T12:50:28.883Z,100075.00
2018-06-24T12:52:33.353Z,100088.00
2018-06-24T12:54:37.806Z,100081.00
2018-06-24T12:56:42.315Z,100081.00
2018-06-24T12:58:46.880Z,100075.00
2018-06-24T13:00:52.505Z,100080.00
2018-06-24T13:02:56.434Z,100064.00
2018-06-24T13:05:00.847Z,100068.00
2018-06-24T13:07:05.570Z,100075.00
2018-06-24T13:09:10.641Z,100074.00
2018-06-24T13:11:15.770Z,100070.00
2018-06-24T13:13:20.284Z,100078.00
2018-06-24T13:15:24.775Z,100076.00
2018-06-24T13:17:29.771Z,100074.00
2018-06-24T13:19:34.234Z,100066.00
2018-06-24T13:21:38.767Z,100059.00
2018-06-24T13:23:43.334Z,100054.00
2018-06-24T13:25:47.832Z,100060.00
2018-06-24T13:27:52.355Z,100063.00
2018-06-24T13:29:56.815Z,100064.00
2018-06-24T13:32:01.337Z,100069.00
2018-06-24T13:34:06.074Z,100060.00
2018-06-24T13:36:10.606Z,100066.00
2018-06-24T13:38:14.807Z,100078.00
2018-06-24T13:40:19.364Z,100077.00
2018-06-24T13:42:24.005Z,100063.00
2018-06-24T13:44:28.430Z,100074.00
2018-06-24T13:46:32.874Z,100060.00
2018-06-24T13:48:37.360Z,100069.00
2018-06-24T13:50:42.327Z,100062.00
2018-06-24T13:52:46.856Z,100084.00
2018-06-24T13:54:51.310Z,100063.00
2018-06-24T13:56:55.748Z,100068.00
2018-06-24T13:59:00.183Z,100066.00
2018-06-24T14:01:04.754Z,100077.00
2018-06-24T14:03:09.243Z,100069.00
2018-06-24T14:05:13.676Z,100062.00
2018-06-24T14:07:18.135Z,100065.00
2018-06-24T14:09:23.219Z,100059.00
2018-06-24T14:11:28.310Z,100068.00
2018-06-24T14:13:32.773Z,100065.00
2018-06-24T14:15:37.392Z,100070.00
2018-06-24T14:17:42.415Z,100067.00
2018-06-24T14:19:47.170Z,100073.00
2018-06-24T14:21:51.426Z,100065.00
2018-06-24T14:23:55.900Z,100062.00
2018-06-24T14:26:00.343Z,100061.00
2018-06-24T14:28:04.884Z,100078.00
2018-06-24T14:30:09.361Z,100081.00
2018-06-24T14:32:13.909Z,100069.00
2018-06-24T14:34:18.418Z,100080.00
2018-06-24T14:36:22.936Z,100081.00
2018-06-24T14:38:27.444Z,100082.00
2018-06-24T14:40:31.889Z,100085.00
2018-06-24T14:42:36.300Z,100083.00
2018-06-24T14:44:40.987Z,100077.00
2018-06-24T14:46:45.544Z,100075.00
2018-06-24T14:48:50.036Z,100073.00
2018-06-24T14:50:54.855Z,100076.00
2018-06-24T14:52:59.125Z,100076.00
2018-06-24T14:55:03.762Z,100079.00
2018-06-24T14:57:08.390Z,100075.00
2018-06-24T14:59:12.541Z,100085.00
2018-06-24T15:01:17.028Z,100082.00
2018-06-24T15:03:23.304Z,100083.00
2018-06-24T15:05:27.928Z,100081.00
2018-06-24T15:07:32.361Z,100086.00
2018-06-24T15:09:36.817Z,100085.00
2018-06-24T15:11:41.394Z,100087.00
2018-06-24T15:13:45.860Z,100086.00
2018-06-24T15:15:50.300Z,100083.00
2018-06-24T15:17:54.724Z,100085.00
2018-06-24T15:19:59.175Z,100085.00
2018-06-24T15:22:03.727Z,100081.00
2018-06-24T15:24:08.267Z,100081.00
2018-06-24T15:26:12.799Z,100084.00
2018-06-24T15:28:17.290Z,100077.00
2018-06-24T15:30:22.465Z,100066.00
2018-06-24T15:32:27.023Z,100070.00
2018-06-24T15:34:31.472Z,100066.00
2018-06-24T15:36:35.975Z,100070.00
2018-06-24T15:38:41.163Z,100077.00
2018-06-24T15:40:45.590Z,100079.00
2018-06-24T15:42:50.069Z,100075.00
2018-06-24T15:44:54.556Z,100075.00
2018-06-24T15:46:59.005Z,100079.00
2018-06-24T15:49:03.471Z,100070.00
2018-06-24T15:51:07.914Z,100068.00
2018-06-24T15:53:12.357Z,100070.00
2018-06-24T15:55:16.831Z,100079.00
2018-06-24T15:57:21.296Z,100079.00
2018-06-24T15:59:25.832Z,100073.00
2018-06-24T16:01:30.350Z,100069.00
2018-06-24T16:03:34.954Z,100064.00
2018-06-24T16:05:39.416Z,100061.00
2018-06-24T16:07:44.562Z,100070.00
2018-06-24T16:09:49.082Z,100074.00
2018-06-24T16:11:53.544Z,100066.00
2018-06-24T16:13:58.100Z,100065.00
2018-06-24T16:16:03.356Z,100083.00
2018-06-24T16:18:07.899Z,100077.00
2018-06-24T16:20:12.407Z,100066.00
2018-06-24T16:22:16.601Z,100066.00
2018-06-24T16:24:21.122Z,100067.00
2018-06-24T16:26:25.655Z,100076.00
2018-06-24T16:28:30.119Z,100063.00
2018-06-24T16:30:35.139Z,100079.00
2018-06-24T16:32:39.627Z,100066.00
2018-06-24T16:34:44.175Z,100068.00
2018-06-24T16:36:48.639Z,100064.00
2018-06-24T16:38:53.079Z,100068.00
2018-06-24T16:40:58.014Z,100076.00
2018-06-24T16:43:02.446Z,100077.00
2018-06-24T16:45:07.294Z,100076.00
2018-06-24T16:47:11.817Z,100073.00
2018-06-24T16:49:16.306Z,100069.00
2018-06-24T16:51:20.751Z,100074.00
2018-06-24T16:53:25.372Z,100069.00
2018-06-24T16:55:29.865Z,100059.00
2018-06-24T16:57:34.822Z,100052.00
2018-06-24T16:59:39.284Z,100064.00
2018-06-24T17:01:43.736Z,100064.00
2018-06-24T17:03:48.261Z,100065.00
2018-06-24T17:05:52.716Z,100063.00
2018-06-24T17:07:57.110Z,100065.00
2018-06-24T17:10:01.716Z,100066.00
2018-06-24T17:12:06.248Z,100060.00
2018-06-24T17:14:10.713Z,100057.00
2018-06-24T17:16:15.508Z,100057.00
2018-06-24T17:18:20.039Z,100057.00
2018-06-24T17:20:24.559Z,100064.00
2018-06-24T17:22:29.110Z,100063.00
2018-06-24T17:24:33.606Z,100065.00
2018-06-24T17:26:38.139Z,100063.00
2018-06-24T17:28:42.701Z,100060.00
2018-06-24T17:30:47.151Z,100058.00
2018-06-24T17:32:51.619Z,100063.00
2018-06-24T17:34:56.060Z,100061.00
2018-06-24T17:37:01.094Z,100061.00
2018-06-24T17:39:10.122Z,100059.00
2018-06-24T17:41:14.566Z,100055.00
2018-06-24T17:43:19.463Z,100060.00
2018-06-24T17:45:23.911Z,100054.00
2018-06-24T17:47:28.432Z,100059.00
2018-06-24T17:49:32.846Z,100058.00
2018-06-24T17:51:37.300Z,100061.00
2018-06-24T17:53:41.712Z,100057.00
2018-06-24T17:55:46.212Z,100053.00
2018-06-24T17:57:50.688Z,100053.00
2018-06-24T17:59:55.125Z,100056.00
2018-06-24T18:02:00.042Z,100053.00
2018-06-24T18:04:04.589Z,100054.00
2018-06-24T18:06:09.263Z,100047.00
2018-06-24T18:08:14.319Z,100052.00
2018-06-24T18:10:18.954Z,100051.00
2018-06-24T18:12:23.398Z,100049.00
2018-06-24T18:14:27.859Z,100040.00
2018-06-24T18:16:32.593Z,100042.00
2018-06-24T18:18:37.010Z,100041.00
2018-06-24T18:20:41.621Z,100038.00
2018-06-24T18:22:47.270Z,100044.00
2018-06-24T18:24:59.109Z,100033.00
2018-06-24T18:27:06.816Z,100039.00
2018-06-24T18:29:11.066Z,100040.00
2018-06-24T18:31:15.720Z,100036.00
2018-06-24T18:33:20.179Z,100036.00
2018-06-24T18:35:24.721Z,100031.00
2018-06-24T18:37:29.271Z,100030.00
2018-06-24T18:39:33.724Z,100028.00
2018-06-24T18:41:38.592Z,100034.00
2018-06-24T18:43:43.065Z,100021.00
2018-06-24T18:45:47.725Z,100029.00
2018-06-24T18:47:52.274Z,100022.00
2018-06-24T18:49:56.783Z,100030.00
2018-06-24T18:52:01.501Z,100026.00
2018-06-24T18:54:06.024Z,100035.00
2018-06-24T18:56:10.443Z,100028.00
2018-06-24T18:58:15.029Z,100028.00
2018-06-24T19:00:19.541Z,100035.00
2018-06-24T19:02:24.275Z,100033.00
2018-06-24T19:04:28.687Z,100038.00
2018-06-24T19:06:33.232Z,100031.00
2018-06-24T19:08:37.671Z,100026.00
2018-06-24T19:10:42.195Z,100030.00
2018-06-24T19:12:46.667Z,100029.00
2018-06-24T19:14:51.098Z,100026.00
2018-06-24T19:16:55.670Z,100017.00
2018-06-24T19:19:00.637Z,100021.00
2018-06-24T19:21:05.705Z,100027.00
2018-06-24T19:23:10.243Z,100023.00
2018-06-24T19:25:14.760Z,100024.00
2018-06-24T19:27:19.272Z,100023.00
2018-06-24T19:29:23.723Z,100019.00
2018-06-24T19:31:28.695Z,100021.00
2018-06-24T19:33:33.152Z,100022.00
2018-06-24T19:35:37.604Z,100029.00
2018-06-24T19:37:42.066Z,100023.00
2018-06-24T19:39:46.990Z,100030.00
2018-06-24T19:41:51.608Z,100033.00
2018-06-24T19:43:56.059Z,100028.00
2018-06-24T19:46:00.596Z,100030.00
2018-06-24T19:48:05.103Z,100034.00
2018-06-24T19:50:09.893Z,100037.00
2018-06-24T19:52:14.312Z,100034.00
2018-06-24T19:54:18.774Z,100030.00
2018-06-24T19:56:23.319Z,100028.00
2018-06-24T19:58:27.876Z,100032.00
2018-06-24T20:00:32.254Z,100026.00
2018-06-24T20:02:36.747Z,100040.00
2018-06-24T20:04:41.300Z,100044.00
2018-06-24T20:06:45.755Z,100047.00
2018-06-24T20:08:50.272Z,100040.00
2018-06-24T20:10:54.717Z,100041.00
2018-06-24T20:12:59.267Z,100047.00
2018-06-24T20:15:03.760Z,100042.00
2018-06-24T20:17:08.540Z,100046.00
2018-06-24T20:19:13.041Z,100049.00
2018-06-24T20:21:17.515Z,100047.00
2018-06-24T20:23:22.239Z,100056.00
2018-06-24T20:25:26.855Z,100054.00
2018-06-24T20:27:31.294Z,100044.00
2018-06-24T20:29:35.734Z,100043.00
2018-06-24T20:31:40.230Z,100048.00
2018-06-24T20:33:44.735Z,100044.00
2018-06-24T20:35:48.869Z,100047.00
2018-06-24T20:37:53.804Z,100044.00
2018-06-24T20:39:58.725Z,100051.00
2018-06-24T20:42:03.482Z,100052.00
2018-06-24T20:44:08.050Z,100056.00
2018-06-24T20:46:13.174Z,100057.00
2018-06-24T20:48:18.018Z,100054.00
2018-06-24T20:50:24.851Z,100061.00
2018-06-24T20:52:29.800Z,100059.00
2018-06-24T20:54:35.445Z,100057.00
2018-06-24T20:56:41.131Z,100050.00
2018-06-24T20:58:45.674Z,100045.00
2018-06-24T21:00:52.011Z,100043.00
2018-06-24T21:02:57.104Z,100046.00
2018-06-24T21:05:03.527Z,100039.00
2018-06-24T21:07:08.119Z,100042.00
2018-06-24T21:09:12.922Z,100051.00
2018-06-24T21:11:17.818Z,100061.00
2018-06-24T21:13:22.475Z,100056.00
2018-06-24T21:15:26.884Z,100056.00
2018-06-24T21:17:32.383Z,100068.00
2018-06-24T21:19:36.814Z,100073.00
2018-06-24T21:21:41.436Z,100067.00
2018-06-24T21:23:46.567Z,100063.00
2018-06-24T21:25:51.722Z,100064.00
2018-06-24T21:27:56.634Z,100057.00
2018-06-24T21:30:01.054Z,100056.00
2018-06-24T21:32:06.390Z,100062.00
2018-06-24T21:34:11.675Z,100076.00
2018-06-24T21:36:16.700Z,100070.00
2018-06-24T21:38:21.707Z,100069.00
2018-06-24T21:40:26.404Z,100060.00
2018-06-24T21:42:31.243Z,100061.00
2018-06-24T21:44:35.671Z,100057.00
2018-06-24T21:46:40.206Z,100056.00
2018-06-24T21:48:45.179Z,100055.00
2018-06-24T21:50:49.842Z,100043.00
2018-06-24T21:52:55.434Z,100048.00
2018-06-24T21:54:59.908Z,100045.00
2018-06-24T21:57:05.148Z,100041.00
2018-06-24T21:59:11.076Z,100048.00
2018-06-24T22:01:15.635Z,100044.00
2018-06-24T22:03:20.093Z,100047.00
2018-06-24T22:05:24.582Z,100048.00
2018-06-24T22:07:29.003Z,100051.00
2018-06-24T22:09:33.458Z,100051.00
2018-06-24T22:11:38.040Z,100048.00
2018-06-24T22:13:42.523Z,100044.00
2018-06-24T22:15:47.035Z,100048.00
2018-06-24T22:17:51.526Z,100041.00
2018-06-24T22:19:56.159Z,100045.00
2018-06-24T22:22:00.866Z,100050.00
2018-06-24T22:24:06.090Z,100045.00
2018-06-24T22:26:10.753Z,100045.00
2018-06-24T22:28:15.270Z,100060.00
2018-06-24T22:30:19.694Z,100049.00
2018-06-24T22:32:24.162Z,100046.00
2018-06-24T22:34:28.690Z,100049.00
2018-06-24T22:36:32.954Z,100060.00
2018-06-24T22:38:37.396Z,100046.00
2018-06-24T22:40:41.842Z,100050.00
2018-06-24T22:42:46.296Z,100055.00
2018-06-24T22:44:51.688Z,100048.00
2018-06-24T22:46:56.142Z,100059.00
2018-06-24T22:49:00.595Z,100053.00
2018-06-24T22:51:04.922Z,100057.00
2018-06-24T22:53:09.423Z,100057.00
2018-06-24T22:55:13.892Z,100060.00
2018-06-24T22:57:18.409Z,100057.00
2018-06-24T22:59:40.289Z,100060.00
2018-06-24T23:01:44.787Z,100057.00
2018-06-24T23:03:49.294Z,100053.00
2018-06-24T23:05:53.767Z,100063.00
2018-06-24T23:07:58.804Z,100056.00
2018-06-24T23:10:03.683Z,100050.00
2018-06-24T23:12:08.150Z,100053.00
2018-06-24T23:14:12.692Z,100065.00
2018-06-24T23:16:17.126Z,100057.00
2018-06-24T23:18:21.529Z,100057.00
2018-06-24T23:20:25.987Z,100061.00
2018-06-24T23:22:30.671Z,100056.00
2018-06-24T23:24:35.120Z,100050.00
2018-06-24T23:26:39.588Z,100053.00
2018-06-24T23:28:44.526Z,100049.00
2018-06-24T23:30:48.939Z,100050.00
2018-06-24T23:32:53.399Z,100047.00
2018-06-24T23:34:57.844Z,100051.00
2018-06-24T23:37:02.246Z,100050.00
2018-06-24T23:39:09.664Z,100042.00
2018-06-24T23:41:17.759Z,100043.00
2018-06-24T23:43:24.550Z,100041.00
2018-06-24T23:45:28.983Z,100034.00
2018-06-24T23:47:33.383Z,100042.00